CPX762 Details

Departure: Jorge Chávez International Airport (SPJC) at 0930 UTC
Arrival: Miami International Airport (KMIA) at 1530 UTC
Route: XOPLI UG448 IKBIX Y183 PEAKY DVALL CURSO5


Current Weather Information
SPJC 221100Z 16007KT 9999 BKN080 21/18 Q1013 NOSIG RMK PP000
KMIA 221053Z 33009G15KT 10SM CLR 15/12 A3005 RMK AO2 SLP176 T01500117